»·PEaware :: SWA4585 KLAX-KSFO

SWA4585 :: KLAX-KSFO

FLIGHT INFORMATION

Flight Status: Arrived
Operator:
Southwest Airlines
More flights by this operator :: More flights under this callsign
Pilot: Ron W. (20661)
Aircraft: BOEING 737-800
(B738)
More flights by this aircraft type
Origin: KLAX Los Angeles Intl
United States
Destination: KSFO San Francisco Intl
United States
More flights between these airports :: More routes between these airports
Route: +SUMMR1 STOKD SERFR SERFR3
File this flight plan on PilotEdge
Remarks:
Altitude:
(Current/Filed)
38,000ft
Speed:
(Current/Filed)
520kts
Departed: 06-Oct-18 05:01 PM
Arrived: 06-Oct-18 06:03 PM
Distance/Time
Traveled:
293nm/1:02
Distance/Time
To Go:
Arrived

Flight Plot

Page will automatically refresh every two minutes.

Flight plan parsing failed; only flown route is shown


Map Options




Map Legend


Flown Route
Filed Route
Departure Airport
Arrival Airport
Navaid (VOR, NDB)
Fix

Horizontal Profiles

Position Reports

Time Latitude Longitude Heading Altitude Ground
Speed
06-Oct-18 16:46 33.947865 -118.401633 0 134ft 0kts
06-Oct-18 16:47 33.947865 -118.401633 173 134ft 0kts
06-Oct-18 16:48 33.947865 -118.401633 173 134ft 0kts
06-Oct-18 16:49 33.947865 -118.401633 173 134ft 0kts
06-Oct-18 16:50 33.947865 -118.401633 173 134ft 0kts
06-Oct-18 16:51 33.947865 -118.401633 173 134ft 0kts
06-Oct-18 16:52 33.947865 -118.401633 173 134ft 0kts
06-Oct-18 16:53 33.947865 -118.401633 173 134ft 0kts
06-Oct-18 16:54 33.947865 -118.401633 173 134ft 0kts
06-Oct-18 16:55 33.948199 -118.401609 208 134ft 2kts
06-Oct-18 16:56 33.948393 -118.401095 262 134ft 0kts
06-Oct-18 16:57 33.948393 -118.401095 262 134ft 0kts
06-Oct-18 16:58 33.948393 -118.401095 262 134ft 0kts
06-Oct-18 16:59 33.948393 -118.401095 262 134ft 0kts
06-Oct-18 17:00 33.948305 -118.401918 262 134ft 12kts
06-Oct-18 17:01 33.949143 -118.402028 48 134ft 0kts
06-Oct-18 17:02 33.949145 -118.402025 48 134ft 0kts
06-Oct-18 17:03 33.949199 -118.411388 262 134ft 110kts
06-Oct-18 17:04 33.945201 -118.453853 264 1843ft 168kts
06-Oct-18 17:05 33.940968 -118.525688 264 4236ft 253kts
06-Oct-18 17:06 33.933913 -118.615136 266 6413ft 274kts
06-Oct-18 17:07 33.926792 -118.707353 268 10360ft 277kts
06-Oct-18 17:08 33.918974 -118.806986 268 12618ft 331kts
06-Oct-18 17:09 33.919409 -118.919087 276 15575ft 338kts
06-Oct-18 17:10 33.933863 -119.030062 298 18312ft 336kts
06-Oct-18 17:11 33.980891 -119.129754 303 20508ft 348kts
06-Oct-18 17:12 34.046364 -119.215643 321 22672ft 355kts
06-Oct-18 17:13 34.127772 -119.287239 323 23999ft 362kts
06-Oct-18 17:14 34.210458 -119.358573 323 25865ft 369kts
06-Oct-18 17:15 34.294842 -119.431586 324 27538ft 375kts
06-Oct-18 17:16 34.380487 -119.505893 324 29060ft 380kts
06-Oct-18 17:17 34.459319 -119.592094 316 30652ft 381kts
06-Oct-18 17:18 34.533261 -119.682972 317 32321ft 376kts
06-Oct-18 17:19 34.605825 -119.772623 317 33891ft 370kts
06-Oct-18 17:20 34.677807 -119.861564 317 35214ft 369kts
06-Oct-18 17:21 34.750029 -119.950884 317 36406ft 368kts
06-Oct-18 17:22 34.821445 -120.039666 317 37632ft 365kts
06-Oct-18 17:23 34.892814 -120.128376 317 37861ft 367kts
06-Oct-18 17:24 34.963957 -120.217306 317 37866ft 365kts
06-Oct-18 17:25 35.034699 -120.306181 317 37867ft 365kts
06-Oct-18 17:26 35.105854 -120.394188 320 37868ft 363kts
06-Oct-18 17:27 35.180635 -120.477275 320 37874ft 363kts
06-Oct-18 17:28 35.255084 -120.560562 321 37869ft 362kts
06-Oct-18 17:29 35.329322 -120.643742 320 37868ft 362kts
06-Oct-18 17:30 35.403529 -120.727596 320 37862ft 362kts
06-Oct-18 17:31 35.477496 -120.811401 321 37854ft 361kts
06-Oct-18 17:32 35.556370 -120.886536 325 37850ft 359kts
06-Oct-18 17:33 35.636260 -120.960344 325 37849ft 359kts
06-Oct-18 17:34 35.716061 -121.034644 325 37844ft 359kts
06-Oct-18 17:35 35.795681 -121.108812 325 37847ft 358kts
06-Oct-18 17:36 35.875125 -121.182795 325 37852ft 358kts
06-Oct-18 17:37 35.954108 -121.256980 325 37824ft 357kts
06-Oct-18 17:38 36.032244 -121.330655 326 35526ft 352kts
06-Oct-18 17:39 36.112527 -121.400285 330 32608ft 354kts
06-Oct-18 17:40 36.197055 -121.465424 329 29718ft 354kts
06-Oct-18 17:41 36.279509 -121.529444 329 27404ft 345kts
06-Oct-18 17:42 36.356352 -121.589658 329 25232ft 336kts
06-Oct-18 17:43 36.434437 -121.651143 329 23057ft 328kts
06-Oct-18 17:44 36.510433 -121.710992 329 21096ft 316kts
06-Oct-18 17:45 36.583597 -121.768733 329 19188ft 307kts
06-Oct-18 17:46 36.654712 -121.825166 329 17207ft 302kts
06-Oct-18 17:47 36.724882 -121.880782 331 15421ft 295kts
06-Oct-18 17:48 36.801308 -121.910479 346 13564ft 276kts
06-Oct-18 17:49 36.873733 -121.931039 347 11824ft 258kts
06-Oct-18 17:50 36.942288 -121.950267 347 10184ft 248kts
06-Oct-18 17:51 37.008413 -121.974591 342 9625ft 253kts
06-Oct-18 17:52 37.074827 -122.000762 342 9216ft 253kts
06-Oct-18 17:53 37.141660 -122.027010 342 8812ft 252kts
06-Oct-18 17:54 37.208554 -122.053271 342 8402ft 251kts
06-Oct-18 17:55 37.275005 -122.079368 343 7969ft 251kts
06-Oct-18 17:56 37.341771 -122.105656 342 6656ft 246kts
06-Oct-18 17:57 37.406075 -122.129527 345 5720ft 221kts
06-Oct-18 17:58 37.460690 -122.148168 344 4606ft 186kts
06-Oct-18 17:59 37.507010 -122.164080 345 3572ft 160kts
06-Oct-18 18:00 37.541447 -122.193869 307 2907ft 161kts
06-Oct-18 18:01 37.562542 -122.241274 300 2065ft 150kts
06-Oct-18 18:02 37.581989 -122.287494 296 1276ft 149kts
06-Oct-18 18:03 37.600359 -122.330965 294 527ft 130kts
06-Oct-18 18:04 37.616728 -122.370220 296 21ft 94kts
06-Oct-18 18:05 37.619416 -122.379403 186 21ft 10kts
06-Oct-18 18:06 37.615957 -122.379155 206 21ft 13kts
06-Oct-18 18:07 37.611412 -122.382166 207 21ft 15kts
06-Oct-18 18:08 37.612018 -122.384738 7 21ft 5kts
06-Oct-18 18:09 37.612635 -122.384667 4 21ft 0kts
06-Oct-18 18:10 37.612635 -122.384667 4 21ft 0kts
06-Oct-18 18:11 37.612635 -122.384667 4 21ft 0kts
06-Oct-18 18:12 37.612635 -122.384667 4 21ft 0kts
06-Oct-18 18:13 37.612635 -122.384667 4 21ft 0kts
06-Oct-18 18:14 37.612635 -122.384667 4 21ft 0kts
06-Oct-18 18:15 37.612635 -122.384667 4 21ft 0kts
06-Oct-18 18:16 37.612635 -122.384667 4 21ft 0kts
06-Oct-18 18:17 37.612635 -122.384667 4 21ft 0kts
06-Oct-18 18:18 37.612635 -122.384667 4 21ft 0kts

Navigation Log

Ident Type
Flight plan parsing failed, navigation log unavailable